M/V Adamas — SXYL — position and weather

sailwx.info

Track history (hours):
 
Tides and Currents Weather Stations Pressure Air Temp Water Temp Dewpoint Dewpoint Depression Visibility Wind Speed Wind Dir Waves Ship Positions

M/V Adamas

Last reported at 2018-Jun-25 04:30 UTC. Time now 2018-Jun-25 04:29 UTC.
Position N 37°44' E 025°18'.

Length 124 m; draft 8.2 m.

Type: Cargo ship. MMSI: 240544000.

Date/timePositionNaut miles runAvg speedWind from/ knotsBaromVisibWave heightAir tempDewpointWater temp
2018-Jun-25 04:30N 37°44' E 025°18'4 7.0
2018-Jun-25 03:59N 37°41' E 025°21'3 6.9
2018-Jun-25 03:30N 37°39' E 025°24'3 6.9
2018-Jun-25 03:00N 37°36' E 025°27'3 6.9
2018-Jun-25 02:31N 37°34' E 025°30'3 6.8
2018-Jun-25 02:00N 37°32' E 025°33'3 6.8
2018-Jun-25 01:30N 37°29' E 025°36'4 7.0
2018-Jun-25 00:59N 37°26' E 025°38'5 7.1
2018-Jun-25 00:17N 37°23' E 025°43'2 7.3
2018-Jun-25 00:00N 37°21' E 025°45'4 7.3
2018-Jun-24 23:30N 37°19' E 025°48'4 7.3
2018-Jun-24 23:00N 37°16' E 025°51'  
2018-Jun-22 09:50N 32°55' E 034°45'3 9.5
2018-Jun-22 09:30N 32°55' E 034°49'5 9.0
2018-Jun-22 08:59N 32°54' E 034°54'5 9.2
2018-Jun-22 08:30N 32°52' E 034°59'  
2018-Jun-19 15:25N 32°51' E 034°59'0 0.0
2018-Jun-19 14:55N 32°51' E 034°59'0 0.0
2018-Jun-19 14:27N 32°51' E 034°59'0 0.0
2018-Jun-19 13:59N 32°51' E 034°59'0 0.1
2018-Jun-19 13:29N 32°51' E 034°59'3 4.7
2018-Jun-19 12:56N 32°53' E 034°57'5 9.6
2018-Jun-19 12:27N 32°54' E 034°52'4 9.5
2018-Jun-19 12:00N 32°55' E 034°47'5 9.4
2018-Jun-19 11:30N 32°56' E 034°41'  
2018-Jun-17 04:58N 37°14' E 025°51'4 9.4
2018-Jun-17 04:30N 37°18' E 025°48'5 9.2
2018-Jun-17 03:59N 37°21' E 025°44'5 9.6
2018-Jun-17 03:30N 37°25' E 025°40'5 9.7
2018-Jun-17 03:00N 37°28' E 025°36'5 9.8
2018-Jun-17 02:30N 37°32' E 025°32'5 9.9
2018-Jun-17 02:00N 37°36' E 025°28'510.1
2018-Jun-17 01:30N 37°39' E 025°23'510.4
2018-Jun-17 01:00N 37°43' E 025°19'510.0
2018-Jun-17 00:30N 37°47' E 025°14'5 9.9
2018-Jun-16 23:58N 37°51' E 025°10'  
Track history (hours):
 
Tides and Currents Weather Stations Pressure Air Temp Water Temp Dewpoint Dewpoint Depression Visibility Wind Speed Wind Dir Waves Ship Positions

M/V Adamas

Last reported at 2018-Jun-25 04:30 UTC. Time now 2018-Jun-25 04:29 UTC.
Position N 37°44' E 025°18'.

Length 124 m; draft 8.2 m.

Type: Cargo ship. MMSI: 240544000.

Date/timePositionNaut miles runAvg speedWind from/ knotsBaromVisibWave heightAir tempDewpointWater temp
2018-Jun-25 04:30N 37°44' E 025°18'4 7.0
2018-Jun-25 03:59N 37°41' E 025°21'3 6.9
2018-Jun-25 03:30N 37°39' E 025°24'3 6.9
2018-Jun-25 03:00N 37°36' E 025°27'3 6.9
2018-Jun-25 02:31N 37°34' E 025°30'3 6.8
2018-Jun-25 02:00N 37°32' E 025°33'3 6.8
2018-Jun-25 01:30N 37°29' E 025°36'4 7.0
2018-Jun-25 00:59N 37°26' E 025°38'5 7.1
2018-Jun-25 00:17N 37°23' E 025°43'2 7.3
2018-Jun-25 00:00N 37°21' E 025°45'4 7.3
2018-Jun-24 23:30N 37°19' E 025°48'4 7.3
2018-Jun-24 23:00N 37°16' E 025°51'  
2018-Jun-22 09:50N 32°55' E 034°45'3 9.5
2018-Jun-22 09:30N 32°55' E 034°49'5 9.0
2018-Jun-22 08:59N 32°54' E 034°54'5 9.2
2018-Jun-22 08:30N 32°52' E 034°59'  
2018-Jun-19 15:25N 32°51' E 034°59'0 0.0
2018-Jun-19 14:55N 32°51' E 034°59'0 0.0
2018-Jun-19 14:27N 32°51' E 034°59'0 0.0
2018-Jun-19 13:59N 32°51' E 034°59'0 0.1
2018-Jun-19 13:29N 32°51' E 034°59'3 4.7
2018-Jun-19 12:56N 32°53' E 034°57'5 9.6
2018-Jun-19 12:27N 32°54' E 034°52'4 9.5
2018-Jun-19 12:00N 32°55' E 034°47'5 9.4
2018-Jun-19 11:30N 32°56' E 034°41'  
2018-Jun-17 04:58N 37°14' E 025°51'4 9.4
2018-Jun-17 04:30N 37°18' E 025°48'5 9.2
2018-Jun-17 03:59N 37°21' E 025°44'5 9.6
2018-Jun-17 03:30N 37°25' E 025°40'5 9.7
2018-Jun-17 03:00N 37°28' E 025°36'5 9.8
2018-Jun-17 02:30N 37°32' E 025°32'5 9.9
2018-Jun-17 02:00N 37°36' E 025°28'510.1
2018-Jun-17 01:30N 37°39' E 025°23'510.4
2018-Jun-17 01:00N 37°43' E 025°19'510.0
2018-Jun-17 00:30N 37°47' E 025°14'5 9.9
2018-Jun-16 23:58N 37°51' E 025°10'  

Dump ship's entire track history